createdAt,value
2022-12-23T00:02:35.337Z,7.977295
2022-12-23T00:06:00.392Z,7.977295
2022-12-23T00:09:25.567Z,7.896729
2022-12-23T00:12:50.775Z,7.866516
2022-12-23T00:16:15.995Z,7.886658
2022-12-23T00:19:41.111Z,7.866516
2022-12-23T00:23:06.276Z,7.866516
2022-12-23T00:26:31.439Z,7.826233
2022-12-23T00:29:56.641Z,7.816162
2022-12-23T00:33:21.789Z,7.816162
2022-12-23T00:36:46.960Z,7.826233
2022-12-23T00:40:12.164Z,7.846375
2022-12-23T00:43:37.350Z,7.856445
2022-12-23T00:47:02.526Z,7.856445
2022-12-23T00:50:27.673Z,7.846375
2022-12-23T00:53:52.835Z,7.896729
2022-12-23T00:57:18.035Z,7.896729
2022-12-23T01:00:43.255Z,7.846375
2022-12-23T01:04:08.407Z,7.866516
2022-12-23T01:07:33.538Z,7.846375
2022-12-23T01:10:58.703Z,7.796021
2022-12-23T01:14:23.891Z,7.745667
2022-12-23T01:17:49.061Z,7.78595
2022-12-23T01:21:14.245Z,7.78595
2022-12-23T01:24:39.400Z,7.826233
2022-12-23T01:28:04.589Z,7.856445
2022-12-23T01:31:29.822Z,7.896729
2022-12-23T01:34:54.886Z,7.846375
2022-12-23T01:38:20.237Z,7.866516
2022-12-23T01:41:45.244Z,7.826233
2022-12-23T01:45:10.401Z,7.816162
2022-12-23T01:48:35.586Z,7.896729
2022-12-23T01:52:00.760Z,7.826233
2022-12-23T01:55:25.938Z,7.796021
2022-12-23T01:58:51.090Z,7.78595
2022-12-23T02:02:16.515Z,7.685242
2022-12-23T02:05:41.417Z,7.745667
2022-12-23T02:09:06.582Z,7.765808
2022-12-23T02:12:31.803Z,7.735596
2022-12-23T02:15:57.021Z,7.78595
2022-12-23T02:19:22.137Z,7.745667
2022-12-23T02:22:47.311Z,7.675171
2022-12-23T02:26:12.493Z,7.644958
2022-12-23T02:29:37.725Z,7.634888
2022-12-23T02:33:02.861Z,7.675171
2022-12-23T02:36:28.001Z,7.675171
2022-12-23T02:39:53.174Z,7.604675
2022-12-23T02:43:18.339Z,7.614746
2022-12-23T02:46:43.575Z,7.604675
2022-12-23T02:50:08.678Z,7.554321
2022-12-23T02:53:33.834Z,7.614746
2022-12-23T02:56:58.999Z,7.6651
2022-12-23T03:00:24.153Z,7.574463
2022-12-23T03:03:49.479Z,7.614746
2022-12-23T03:07:18.411Z,7.584534
2022-12-23T03:10:39.654Z,7.584534
2022-12-23T03:14:04.826Z,7.604675
2022-12-23T03:17:29.981Z,7.604675
2022-12-23T03:20:55.187Z,7.675171
2022-12-23T03:24:20.333Z,7.644958
2022-12-23T03:27:45.523Z,7.6651
2022-12-23T03:31:10.769Z,7.574463
2022-12-23T03:34:35.830Z,7.584534
2022-12-23T03:38:01.035Z,7.634888
2022-12-23T03:41:26.151Z,7.634888
2022-12-23T03:45:19.534Z,7.644958
2022-12-23T03:48:16.507Z,7.675171
2022-12-23T03:51:41.664Z,7.735596
2022-12-23T03:55:06.844Z,7.675171
2022-12-23T03:58:31.984Z,7.634888
2022-12-23T04:01:57.253Z,7.644958
2022-12-23T04:05:22.315Z,7.705383
2022-12-23T04:08:47.520Z,7.715454
2022-12-23T04:12:12.671Z,7.685242
2022-12-23T04:15:37.871Z,7.745667
2022-12-23T04:19:02.995Z,7.796021
2022-12-23T04:22:28.156Z,7.816162
2022-12-23T04:25:53.361Z,7.816162
2022-12-23T04:29:18.557Z,7.886658
2022-12-23T04:32:43.720Z,7.856445
2022-12-23T04:36:08.856Z,7.826233
2022-12-23T04:39:34.055Z,7.856445
2022-12-23T04:42:59.216Z,7.856445
2022-12-23T04:46:24.432Z,7.826233
2022-12-23T04:49:49.535Z,7.866516
2022-12-23T04:53:14.730Z,7.866516
2022-12-23T04:56:39.880Z,7.896729
2022-12-23T05:00:05.046Z,7.926941
2022-12-23T05:03:30.222Z,7.896729
2022-12-23T05:06:55.340Z,7.896729
2022-12-23T05:10:20.512Z,7.866516
2022-12-23T05:13:51.337Z,7.816162
2022-12-23T05:17:16.560Z,7.796021
2022-12-23T05:20:41.742Z,7.78595
2022-12-23T05:24:06.934Z,7.765808
2022-12-23T05:27:32.107Z,7.765808
2022-12-23T05:30:57.260Z,7.685242
2022-12-23T05:34:22.431Z,7.685242
2022-12-23T05:37:47.624Z,7.735596
2022-12-23T05:41:12.835Z,7.715454
2022-12-23T05:44:38.051Z,7.745667
2022-12-23T05:48:03.228Z,7.685242
2022-12-23T05:51:28.397Z,7.735596
2022-12-23T05:54:53.616Z,7.705383
2022-12-23T05:58:18.772Z,7.735596
2022-12-23T06:01:44.131Z,7.735596
2022-12-23T06:05:09.129Z,7.765808
2022-12-23T06:08:34.345Z,7.826233
2022-12-23T06:11:59.558Z,7.816162
2022-12-23T06:15:24.721Z,7.78595
2022-12-23T06:18:49.913Z,7.78595
2022-12-23T06:22:15.108Z,7.78595
2022-12-23T06:25:40.294Z,7.78595
2022-12-23T06:29:05.540Z,7.765808
2022-12-23T06:32:36.185Z,7.745667
2022-12-23T06:35:55.812Z,7.78595
2022-12-23T06:39:21.015Z,7.816162
2022-12-23T06:42:46.209Z,7.765808
2022-12-23T06:46:11.491Z,7.816162
2022-12-23T06:49:36.602Z,7.796021
2022-12-23T06:53:01.763Z,7.735596
2022-12-23T06:56:26.939Z,7.685242
2022-12-23T06:59:52.156Z,7.765808
2022-12-23T07:03:17.495Z,7.816162
2022-12-23T07:06:42.532Z,7.796021
2022-12-23T07:10:07.730Z,7.796021
2022-12-23T07:13:32.885Z,7.816162
2022-12-23T07:16:58.184Z,7.846375
2022-12-23T07:20:23.267Z,7.846375
2022-12-23T07:23:48.427Z,7.78595
2022-12-23T07:27:13.633Z,7.796021
2022-12-23T07:30:38.810Z,7.745667
2022-12-23T07:34:03.991Z,7.816162
2022-12-23T07:37:29.249Z,7.78595
2022-12-23T07:40:54.373Z,7.826233
2022-12-23T07:44:19.585Z,7.856445
2022-12-23T07:47:44.843Z,7.846375
2022-12-23T07:51:10.046Z,7.826233
2022-12-23T07:54:35.799Z,7.846375
2022-12-23T07:58:01.010Z,7.886658
2022-12-23T08:01:26.654Z,7.886658
2022-12-23T08:04:51.700Z,7.967224
2022-12-23T08:08:16.902Z,8.007507
2022-12-23T08:11:42.121Z,8.067932
2022-12-23T08:15:07.288Z,8.108215
2022-12-23T08:18:32.536Z,8.118286
2022-12-23T08:21:57.716Z,8.118286
2022-12-23T08:25:22.900Z,8.218994
2022-12-23T08:28:48.094Z,8.279419
2022-12-23T08:32:13.263Z,8.28949
2022-12-23T08:35:38.465Z,8.380127
2022-12-23T08:39:03.676Z,8.370056
2022-12-23T08:42:28.860Z,8.440552
2022-12-23T08:45:54.096Z,8.440552
2022-12-23T08:49:19.247Z,8.470764
2022-12-23T08:52:44.422Z,8.470764
2022-12-23T08:56:09.623Z,8.450623
2022-12-23T08:59:37.079Z,8.470764
2022-12-23T09:03:02.404Z,8.480835
2022-12-23T09:06:29.744Z,8.480835
2022-12-23T09:09:52.670Z,8.410339
2022-12-23T09:13:25.111Z,8.410339
2022-12-23T09:16:43.019Z,8.500977
2022-12-23T09:20:08.242Z,8.631897
2022-12-23T09:23:33.436Z,8.742676
2022-12-23T09:26:58.618Z,8.813171
2022-12-23T09:30:23.798Z,8.742676
2022-12-23T09:33:48.970Z,8.732605
2022-12-23T09:37:14.196Z,8.772888
2022-12-23T09:40:39.352Z,8.662109
2022-12-23T09:44:04.534Z,8.631897
2022-12-23T09:47:29.726Z,8.621826
2022-12-23T09:50:54.893Z,8.652039
2022-12-23T09:54:20.105Z,8.682251
2022-12-23T09:57:45.265Z,8.682251
2022-12-23T10:01:10.455Z,8.631897
2022-12-23T10:04:35.747Z,8.591614
2022-12-23T10:08:00.817Z,8.591614
2022-12-23T10:11:26.015Z,8.581543
2022-12-23T10:14:51.147Z,8.581543
2022-12-23T10:18:16.349Z,8.591614
2022-12-23T10:21:46.822Z,8.621826
2022-12-23T10:25:06.696Z,8.702393
2022-12-23T10:28:32.021Z,8.732605
2022-12-23T10:31:57.073Z,8.712463
2022-12-23T10:35:22.242Z,8.712463
2022-12-23T10:38:47.439Z,8.712463
2022-12-23T10:42:12.598Z,8.732605
2022-12-23T10:45:37.802Z,8.682251
2022-12-23T10:49:02.986Z,8.742676
2022-12-23T10:52:28.138Z,8.813171
2022-12-23T10:55:53.299Z,8.863525
2022-12-23T10:59:18.481Z,8.732605
2022-12-23T11:02:43.837Z,8.682251
2022-12-23T11:06:08.822Z,8.662109
2022-12-23T11:09:34.009Z,8.611755
2022-12-23T11:12:59.194Z,8.611755
2022-12-23T11:16:24.494Z,8.621826
2022-12-23T11:19:49.623Z,8.621826
2022-12-23T11:23:14.782Z,8.621826
2022-12-23T11:26:40.011Z,8.652039
2022-12-23T11:30:05.138Z,8.621826
2022-12-23T11:33:30.307Z,8.662109
2022-12-23T11:36:58.645Z,8.631897
2022-12-23T11:40:20.683Z,8.652039
2022-12-23T11:43:45.875Z,8.662109
2022-12-23T11:47:11.077Z,8.621826
2022-12-23T11:50:36.282Z,8.652039
2022-12-23T11:54:01.524Z,8.551331
2022-12-23T11:57:26.702Z,8.611755
2022-12-23T12:00:55.477Z,8.662109
2022-12-23T12:04:17.125Z,8.652039
2022-12-23T12:07:42.379Z,8.652039
2022-12-23T12:11:07.600Z,8.551331
2022-12-23T12:14:32.777Z,8.521118
2022-12-23T12:17:57.959Z,8.531189
2022-12-23T12:21:23.150Z,8.591614
2022-12-23T12:24:48.358Z,8.591614
2022-12-23T12:28:13.602Z,8.611755
2022-12-23T12:31:38.776Z,8.551331
2022-12-23T12:35:03.986Z,8.480835
2022-12-23T12:38:29.180Z,8.470764
2022-12-23T12:41:57.262Z,8.470764
2022-12-23T12:45:19.605Z,8.551331
2022-12-23T12:48:44.782Z,8.551331
2022-12-23T12:52:10.004Z,8.551331
2022-12-23T12:55:35.213Z,8.621826
2022-12-23T12:59:00.411Z,8.591614
2022-12-23T13:02:25.667Z,8.591614
2022-12-23T13:05:54.010Z,8.581543
2022-12-23T13:09:16.059Z,8.611755
2022-12-23T13:12:41.349Z,8.621826
2022-12-23T13:16:06.613Z,8.561401
2022-12-23T13:19:31.854Z,8.531189
2022-12-23T13:23:06.296Z,8.561401
2022-12-23T13:26:22.273Z,8.591614
2022-12-23T13:29:47.566Z,8.581543
2022-12-23T13:33:12.811Z,8.551331
2022-12-23T13:36:38.072Z,8.581543
2022-12-23T13:40:03.205Z,8.611755
2022-12-23T13:43:28.413Z,8.621826
2022-12-23T13:46:53.635Z,8.591614
2022-12-23T13:50:18.840Z,8.712463
2022-12-23T13:53:44.111Z,8.762817
2022-12-23T13:57:09.313Z,8.79303
2022-12-23T14:00:34.503Z,8.803101
2022-12-23T14:03:59.732Z,8.762817
2022-12-23T14:07:25.018Z,8.662109
2022-12-23T14:10:50.206Z,8.652039
2022-12-23T14:14:15.368Z,8.631897
2022-12-23T14:17:40.592Z,8.621826
2022-12-23T14:21:05.795Z,8.611755
2022-12-23T14:24:31.015Z,8.531189
2022-12-23T14:27:56.259Z,8.531189
2022-12-23T15:04:49.423Z,8.450623
2022-12-23T15:08:14.684Z,8.359985
2022-12-23T15:11:39.920Z,8.359985
2022-12-23T15:15:05.160Z,8.28949
2022-12-23T15:18:30.410Z,8.218994
2022-12-23T15:22:03.333Z,8.178711
2022-12-23T15:25:20.876Z,8.178711
2022-12-23T15:28:46.128Z,8.078003
2022-12-23T15:32:11.407Z,8.067932
2022-12-23T15:35:36.632Z,8.078003
2022-12-23T15:39:01.913Z,8.098145
2022-12-23T15:42:27.176Z,8.118286
2022-12-23T15:45:52.419Z,8.178711
2022-12-23T15:49:17.675Z,8.198853
2022-12-23T15:52:42.912Z,8.218994
2022-12-23T15:56:08.186Z,8.249207
2022-12-23T15:59:33.419Z,8.249207
2022-12-23T16:03:00.821Z,8.279419
2022-12-23T16:06:23.915Z,8.299561
2022-12-23T16:09:49.160Z,8.329773
2022-12-23T16:13:14.438Z,8.279419
2022-12-23T16:16:39.810Z,8.158569
2022-12-23T16:20:04.882Z,8.229065
2022-12-23T16:23:30.133Z,8.188782
2022-12-23T16:26:55.374Z,8.198853
2022-12-23T16:30:20.627Z,8.158569
2022-12-23T16:33:45.844Z,8.198853
2022-12-23T16:37:11.089Z,8.229065
2022-12-23T16:40:36.327Z,8.218994
2022-12-23T16:44:01.587Z,8.188782
2022-12-23T16:47:26.840Z,8.249207
2022-12-23T16:50:52.057Z,8.28949
2022-12-23T16:54:17.303Z,8.380127
2022-12-23T16:57:42.563Z,8.400269
2022-12-23T17:01:07.882Z,8.410339
2022-12-23T17:04:33.069Z,8.430481
2022-12-23T17:07:58.284Z,8.450623
2022-12-23T17:11:23.547Z,8.440552
2022-12-23T17:14:48.794Z,8.440552
2022-12-23T17:18:14.098Z,8.480835
2022-12-23T17:21:39.350Z,8.531189
2022-12-23T17:25:04.609Z,8.500977
2022-12-23T17:28:29.861Z,8.470764
2022-12-23T17:31:55.264Z,8.450623
2022-12-23T17:35:20.450Z,8.440552
2022-12-23T17:38:45.762Z,8.410339
2022-12-23T17:42:11.035Z,8.470764
2022-12-23T17:45:36.340Z,8.470764
2022-12-23T17:49:01.523Z,8.500977
2022-12-23T17:52:26.764Z,8.561401
2022-12-23T17:55:52.056Z,8.521118
2022-12-23T17:59:17.292Z,8.470764
2022-12-23T18:02:42.580Z,8.480835
2022-12-23T18:06:07.793Z,8.521118
2022-12-23T18:09:33.017Z,8.561401
2022-12-23T18:12:58.295Z,8.591614
2022-12-23T18:16:23.537Z,8.551331
2022-12-23T18:19:48.755Z,8.531189
2022-12-23T18:23:14.158Z,8.470764
2022-12-23T18:26:39.248Z,8.470764
2022-12-23T18:30:04.517Z,8.500977
2022-12-23T18:33:30.485Z,8.521118
2022-12-23T18:36:55.830Z,8.591614
2022-12-23T18:40:21.075Z,8.581543
2022-12-23T18:43:46.362Z,8.561401
2022-12-23T18:47:11.638Z,8.591614
2022-12-23T18:50:36.876Z,8.591614
2022-12-23T18:54:02.171Z,8.621826
2022-12-23T18:57:27.424Z,8.682251
2022-12-23T19:00:52.744Z,8.702393
2022-12-23T19:04:18.002Z,8.682251
2022-12-23T19:07:43.384Z,8.762817
2022-12-23T19:11:08.689Z,8.79303
2022-12-23T19:14:33.962Z,8.762817
2022-12-23T19:17:59.247Z,8.813171
2022-12-23T19:21:24.604Z,8.873596
2022-12-23T19:25:04.315Z,8.944092
2022-12-23T19:28:15.037Z,8.954163
2022-12-23T19:31:40.346Z,8.964233
2022-12-23T19:35:05.596Z,8.964233
2022-12-23T19:38:30.881Z,8.954163
2022-12-23T19:41:56.100Z,8.954163
2022-12-23T19:45:21.454Z,8.984375
2022-12-23T19:48:46.822Z,8.984375
2022-12-23T19:52:12.099Z,9.024658
2022-12-23T19:55:37.365Z,9.054871
2022-12-23T19:59:02.574Z,9.075012
2022-12-23T20:02:27.931Z,9.0448
2022-12-23T20:05:53.090Z,9.0448
2022-12-23T20:09:18.352Z,9.014587
2022-12-23T20:12:43.632Z,9.0448
2022-12-23T20:16:08.955Z,9.054871
2022-12-23T20:19:34.141Z,9.0448
2022-12-23T20:22:59.440Z,9.105225
2022-12-23T20:26:24.663Z,9.135437
2022-12-23T20:29:49.945Z,9.145508
2022-12-23T20:33:15.199Z,9.256287
2022-12-23T20:36:40.503Z,9.236145
2022-12-23T20:40:05.696Z,9.256287
2022-12-23T20:43:30.929Z,9.236145
2022-12-23T20:46:56.296Z,9.256287
2022-12-23T20:50:21.407Z,9.286499
2022-12-23T20:53:46.674Z,9.306641
2022-12-23T20:57:11.920Z,9.276428
2022-12-23T21:00:37.161Z,9.326782
2022-12-23T21:04:02.435Z,9.356995
2022-12-23T21:07:27.655Z,9.316711
2022-12-23T21:10:52.910Z,9.236145
2022-12-23T21:14:18.213Z,9.256287
2022-12-23T21:17:43.511Z,9.276428
2022-12-23T21:21:08.772Z,9.17572
2022-12-23T21:24:34.007Z,9.165649
2022-12-23T21:27:59.266Z,9.17572
2022-12-23T21:31:24.569Z,9.135437
2022-12-23T21:34:49.797Z,9.145508
2022-12-23T21:38:15.083Z,9.165649
2022-12-23T21:41:40.309Z,9.105225
2022-12-23T21:45:05.586Z,9.014587
2022-12-23T21:48:30.829Z,8.994446
2022-12-23T21:51:56.086Z,8.994446
2022-12-23T21:55:21.379Z,9.014587
2022-12-23T21:58:46.639Z,9.014587
2022-12-23T22:02:11.946Z,9.024658
2022-12-23T22:05:37.102Z,8.964233
2022-12-23T22:09:02.381Z,9.054871
2022-12-23T22:12:27.627Z,8.994446
2022-12-23T22:15:52.903Z,8.994446
2022-12-23T22:19:18.108Z,8.984375
2022-12-23T22:22:43.339Z,8.984375
2022-12-23T22:26:08.562Z,8.994446
2022-12-23T22:29:33.842Z,8.954163
2022-12-23T22:32:59.073Z,8.92395
2022-12-23T22:36:24.403Z,8.893738
2022-12-23T22:39:49.563Z,8.913879
2022-12-23T22:43:14.840Z,8.913879
2022-12-23T22:46:40.087Z,8.944092
2022-12-23T22:50:05.301Z,8.92395
2022-12-23T22:53:30.529Z,8.954163
2022-12-23T22:56:55.772Z,8.994446
2022-12-23T23:00:21.033Z,8.994446
2022-12-23T23:03:46.301Z,8.984375
2022-12-23T23:07:11.508Z,8.994446
2022-12-23T23:10:36.767Z,8.944092
2022-12-23T23:14:02.008Z,8.944092
2022-12-23T23:17:27.269Z,8.994446
2022-12-23T23:20:52.539Z,8.893738
2022-12-23T23:24:17.786Z,8.873596
2022-12-23T23:27:43.016Z,8.873596
2022-12-23T23:34:33.507Z,8.833313
2022-12-23T23:37:58.746Z,8.813171
2022-12-23T23:41:24.387Z,8.803101
2022-12-23T23:44:49.229Z,8.863525
2022-12-23T23:48:14.477Z,8.863525
2022-12-23T23:51:39.715Z,8.863525
2022-12-23T23:55:04.973Z,8.843384
2022-12-23T23:58:30.208Z,8.873596
